createdAt,value
2023-05-21T00:00:43.016Z,77.06
2023-05-21T00:03:30.626Z,75.31
2023-05-21T00:05:57.480Z,74.72
2023-05-21T00:08:24.418Z,72.27
2023-05-21T00:10:51.365Z,72.31
2023-05-21T00:13:18.038Z,78.10
2023-05-21T00:15:45.040Z,74.54
2023-05-21T00:18:11.941Z,73.16
2023-05-21T00:20:41.301Z,74.10
2023-05-21T00:23:08.243Z,70.88
2023-05-21T00:25:35.137Z,66.73
2023-05-21T00:28:02.325Z,67.12
2023-05-21T00:30:29.181Z,69.90
2023-05-21T00:32:58.336Z,76.19
2023-05-21T00:35:25.099Z,79.11
2023-05-21T00:37:53.482Z,78.88
2023-05-21T00:40:20.531Z,80.45
2023-05-21T00:42:47.583Z,76.23
2023-05-21T00:45:14.838Z,72.29
2023-05-21T00:47:43.471Z,73.62
2023-05-21T00:50:11.380Z,72.48
2023-05-21T00:52:41.503Z,72.06
2023-05-21T00:55:09.569Z,74.73
2023-05-21T00:57:36.820Z,77.49
2023-05-21T01:00:06.797Z,80.64
2023-05-21T01:02:34.282Z,80.82
2023-05-21T01:05:01.348Z,81.32
2023-05-21T01:07:28.182Z,77.08
2023-05-21T01:09:55.249Z,74.47
2023-05-21T01:12:22.996Z,76.93
2023-05-21T01:14:50.349Z,81.77
2023-05-21T01:17:17.293Z,82.16
2023-05-21T01:19:44.220Z,81.12
2023-05-21T01:22:12.208Z,77.51
2023-05-21T01:24:39.048Z,74.72
2023-05-21T01:27:07.218Z,72.82
2023-05-21T01:29:34.581Z,74.50
2023-05-21T01:32:09.312Z,79.21
2023-05-21T01:34:42.126Z,82.32
2023-05-21T01:37:30.946Z,82.85
2023-05-21T01:40:05.413Z,81.38
2023-05-21T01:42:35.176Z,78.88
2023-05-21T01:45:05.815Z,77.12
2023-05-21T01:47:34.024Z,77.79
2023-05-21T01:50:01.446Z,78.58
2023-05-21T01:52:28.735Z,80.23
2023-05-21T01:54:56.556Z,83.39
2023-05-21T01:57:23.399Z,84.85
2023-05-21T01:59:52.891Z,85.28
2023-05-21T02:02:19.669Z,84.24
2023-05-21T02:04:46.502Z,82.34
2023-05-21T02:07:14.763Z,79.07
2023-05-21T02:09:41.607Z,80.79
2023-05-21T02:12:08.448Z,82.99
2023-05-21T02:14:35.917Z,85.31
2023-05-21T02:17:05.310Z,84.14
2023-05-21T02:19:32.562Z,82.69
2023-05-21T02:21:59.509Z,83.98
2023-05-21T02:24:26.345Z,82.13
2023-05-21T02:26:53.026Z,78.11
2023-05-21T02:29:20.049Z,78.30
2023-05-21T02:31:46.876Z,76.67
2023-05-21T02:34:13.786Z,75.34
2023-05-21T02:36:41.290Z,76.17
2023-05-21T02:39:08.053Z,76.72
2023-05-21T02:41:37.419Z,78.13
2023-05-21T02:44:04.585Z,79.95
2023-05-21T02:46:31.896Z,82.85
2023-05-21T02:48:58.969Z,82.83
2023-05-21T02:51:26.015Z,83.21
2023-05-21T02:53:52.756Z,85.78
2023-05-21T02:56:19.596Z,85.57
2023-05-21T02:58:46.653Z,86.93
2023-05-21T03:01:13.826Z,86.01
2023-05-21T03:03:40.977Z,84.60
2023-05-21T03:06:09.736Z,80.30
2023-05-21T03:08:37.082Z,79.38
2023-05-21T03:11:04.434Z,81.21
2023-05-21T03:13:31.340Z,79.90
2023-05-21T03:15:58.327Z,80.29
2023-05-21T03:18:25.168Z,79.78
2023-05-21T03:20:52.534Z,78.33
2023-05-21T03:23:19.269Z,76.52
2023-05-21T03:25:46.722Z,74.49
2023-05-21T03:28:14.385Z,72.09
2023-05-21T03:30:46.784Z,70.15
2023-05-21T03:33:28.548Z,69.23
2023-05-21T03:35:55.594Z,69.05
2023-05-21T03:38:23.466Z,68.80
2023-05-21T03:40:50.755Z,67.29
2023-05-21T03:43:17.773Z,65.38
2023-05-21T03:45:46.497Z,65.01
2023-05-21T03:48:40.220Z,64.09
2023-05-21T03:51:09.112Z,62.59
2023-05-21T03:53:36.463Z,61.99
2023-05-21T03:56:03.409Z,61.34
2023-05-21T03:58:31.083Z,61.91
2023-05-21T04:01:00.067Z,58.93
2023-05-21T04:03:27.316Z,58.30
2023-05-21T04:05:54.373Z,57.37
2023-05-21T04:08:21.218Z,56.61
2023-05-21T04:10:47.993Z,56.18
2023-05-21T04:13:15.509Z,54.89
2023-05-21T04:15:44.237Z,53.64
2023-05-21T04:18:13.181Z,53.58
2023-05-21T04:20:40.040Z,52.91
2023-05-21T04:23:07.277Z,51.41
2023-05-21T04:25:34.250Z,49.68
2023-05-21T04:28:02.759Z,48.71
2023-05-21T04:30:29.551Z,47.17
2023-05-21T04:32:57.527Z,46.18
2023-05-21T04:35:24.462Z,44.02
2023-05-21T04:37:51.708Z,41.08
2023-05-21T04:40:23.977Z,41.23
2023-05-21T04:42:51.101Z,40.13
2023-05-21T04:45:18.698Z,41.30
2023-05-21T04:47:45.876Z,38.31
2023-05-21T04:50:12.888Z,38.85
2023-05-21T04:52:39.930Z,36.04
2023-05-21T04:55:07.283Z,36.50
2023-05-21T04:57:35.264Z,35.91
2023-05-21T05:00:03.053Z,34.86
2023-05-21T05:02:35.828Z,33.92
2023-05-21T05:05:02.644Z,33.67
2023-05-21T05:07:29.387Z,33.57
2023-05-21T05:09:56.145Z,33.43
2023-05-21T05:12:23.012Z,32.77
2023-05-21T05:14:50.028Z,32.83
2023-05-21T05:17:16.676Z,32.45
2023-05-21T05:19:43.899Z,31.83
2023-05-21T05:22:12.924Z,31.54
2023-05-21T05:24:40.658Z,31.20
2023-05-21T05:27:07.397Z,30.49
2023-05-21T05:29:34.545Z,30.68
2023-05-21T05:32:01.386Z,30.16
2023-05-21T05:34:28.131Z,30.42
2023-05-21T05:36:56.772Z,30.52
2023-05-21T05:39:24.277Z,30.35
2023-05-21T05:41:52.015Z,30.52
2023-05-21T05:44:18.840Z,30.66
2023-05-21T05:46:45.624Z,29.84
2023-05-21T05:49:13.488Z,28.63
2023-05-21T05:51:40.630Z,28.58
2023-05-21T05:54:07.991Z,29.39
2023-05-21T05:56:35.644Z,29.51
2023-05-21T05:59:04.240Z,30.25
2023-05-21T06:01:31.504Z,29.86
2023-05-21T06:03:58.219Z,29.56
2023-05-21T06:06:25.267Z,29.54
2023-05-21T06:08:52.108Z,29.99
2023-05-21T06:11:21.207Z,29.20
2023-05-21T06:13:48.353Z,29.10
2023-05-21T06:16:17.195Z,28.67
2023-05-21T06:18:44.158Z,29.71
2023-05-21T06:21:11.038Z,30.78
2023-05-21T06:23:38.593Z,30.48
2023-05-21T06:26:05.946Z,31.30
2023-05-21T06:28:32.914Z,32.30
2023-05-21T06:30:59.747Z,32.42
2023-05-21T06:33:29.671Z,32.77
2023-05-21T06:35:56.596Z,33.73
2023-05-21T06:38:23.842Z,32.97
2023-05-21T06:40:50.583Z,33.48
2023-05-21T06:43:29.018Z,33.90
2023-05-21T06:46:14.507Z,33.86
2023-05-21T06:48:43.779Z,33.60
2023-05-21T06:51:11.157Z,35.53
2023-05-21T06:53:38.380Z,35.58
2023-05-21T06:56:07.785Z,35.46
2023-05-21T06:58:40.967Z,34.60
2023-05-21T07:01:07.847Z,35.02
2023-05-21T07:03:35.444Z,34.97
2023-05-21T07:06:02.079Z,35.00
2023-05-21T07:08:28.920Z,34.08
2023-05-21T07:10:56.448Z,36.11
2023-05-21T07:13:23.253Z,36.71
2023-05-21T07:15:50.340Z,35.23
2023-05-21T07:18:17.358Z,36.37
2023-05-21T07:20:44.344Z,35.96
2023-05-21T07:23:13.385Z,36.08
2023-05-21T07:25:40.124Z,35.93
2023-05-21T07:28:06.981Z,35.72
2023-05-21T07:30:34.111Z,35.21
2023-05-21T07:33:01.718Z,36.02
2023-05-21T07:35:28.893Z,35.47
2023-05-21T07:37:55.789Z,34.52
2023-05-21T07:40:22.648Z,36.77
2023-05-21T07:42:51.841Z,36.77
2023-05-21T07:45:19.298Z,35.08
2023-05-21T07:47:46.578Z,35.96
2023-05-21T07:50:15.622Z,36.32
2023-05-21T07:52:42.648Z,36.09
2023-05-21T07:55:09.921Z,35.94
2023-05-21T07:57:37.275Z,36.23
2023-05-21T08:00:09.453Z,36.19
2023-05-21T08:02:42.303Z,36.22
2023-05-21T08:05:10.691Z,35.36
2023-05-21T08:07:38.166Z,35.71
2023-05-21T08:10:05.926Z,35.98
2023-05-21T08:12:32.840Z,35.75
2023-05-21T08:14:59.892Z,35.07
2023-05-21T08:17:28.065Z,35.63
2023-05-21T08:19:55.064Z,34.56
2023-05-21T08:22:21.828Z,35.64
2023-05-21T08:24:49.328Z,36.55
2023-05-21T08:27:16.097Z,36.60
2023-05-21T08:29:43.525Z,37.14
2023-05-21T08:32:10.712Z,36.52
2023-05-21T08:34:37.996Z,35.61
2023-05-21T08:37:23.335Z,36.41
2023-05-21T08:40:03.983Z,36.12
2023-05-21T08:42:45.122Z,35.70
2023-05-21T08:45:22.296Z,36.39
2023-05-21T08:47:54.544Z,36.53
2023-05-21T08:50:21.448Z,35.02
2023-05-21T08:52:49.759Z,35.43
2023-05-21T08:55:17.106Z,35.46
2023-05-21T08:57:44.329Z,34.69
2023-05-21T09:00:16.382Z,35.50
2023-05-21T09:02:44.035Z,34.49
2023-05-21T09:05:11.915Z,34.52
2023-05-21T09:07:52.765Z,35.47
2023-05-21T09:10:41.783Z,36.08
2023-05-21T09:13:09.821Z,34.49
2023-05-21T09:15:36.901Z,34.66
2023-05-21T09:18:03.945Z,35.36
2023-05-21T09:20:46.363Z,35.76
2023-05-21T09:23:16.735Z,35.45
2023-05-21T09:25:48.510Z,35.11
2023-05-21T09:28:24.490Z,35.25
2023-05-21T09:30:53.622Z,34.09
2023-05-21T09:33:24.597Z,35.82
2023-05-21T09:35:51.554Z,35.30
2023-05-21T09:38:21.494Z,35.88
2023-05-21T09:40:48.297Z,35.14
2023-05-21T09:43:15.978Z,35.99
2023-05-21T09:45:53.005Z,35.94
2023-05-21T09:48:40.264Z,35.91
2023-05-21T09:51:18.999Z,36.15
2023-05-21T09:53:53.713Z,36.77
2023-05-21T09:56:23.936Z,36.08
2023-05-21T09:58:54.247Z,37.08
2023-05-21T10:01:21.330Z,36.71
2023-05-21T10:03:56.311Z,37.29
2023-05-21T10:06:27.605Z,35.69
2023-05-21T10:08:58.097Z,35.45
2023-05-21T10:11:26.604Z,36.48
2023-05-21T10:14:12.931Z,36.58
2023-05-21T10:16:40.208Z,36.66
2023-05-21T10:19:10.410Z,37.66
2023-05-21T10:21:39.456Z,36.67
2023-05-21T10:24:07.117Z,36.75
2023-05-21T10:26:33.962Z,36.76
2023-05-21T10:29:03.159Z,37.32
2023-05-21T10:31:31.435Z,36.38
2023-05-21T10:34:00.022Z,36.78
2023-05-21T10:36:29.624Z,37.45
2023-05-21T10:38:56.880Z,37.39
2023-05-21T10:41:26.098Z,36.70
2023-05-21T10:43:53.024Z,37.48
2023-05-21T10:46:38.746Z,37.41
2023-05-21T10:49:16.763Z,37.79
2023-05-21T10:51:46.263Z,37.39
2023-05-21T10:54:19.003Z,37.38
2023-05-21T10:56:52.541Z,37.04
2023-05-21T10:59:27.878Z,38.17
2023-05-21T11:01:56.418Z,37.22
2023-05-21T11:04:26.025Z,36.52
2023-05-21T11:06:52.912Z,37.15
2023-05-21T11:09:19.708Z,36.70
2023-05-21T11:11:50.438Z,36.75
2023-05-21T11:14:31.320Z,37.36
2023-05-21T11:16:58.823Z,38.20
2023-05-21T11:19:55.209Z,38.13
2023-05-21T11:22:23.688Z,37.91
2023-05-21T11:24:51.493Z,37.20
2023-05-21T11:27:30.818Z,37.29
2023-05-21T11:29:57.595Z,37.83
2023-05-21T11:32:24.554Z,37.45
2023-05-21T11:34:51.297Z,36.69
2023-05-21T11:37:18.009Z,37.38
2023-05-21T11:39:44.836Z,36.99
2023-05-21T11:42:12.163Z,37.06
2023-05-21T11:44:42.791Z,36.67
2023-05-21T11:47:10.542Z,36.34
2023-05-21T11:49:37.707Z,35.32
2023-05-21T11:52:05.668Z,36.55
2023-05-21T11:54:36.951Z,35.62
2023-05-21T11:57:07.516Z,35.58
2023-05-21T11:59:34.892Z,35.41
2023-05-21T12:02:02.759Z,35.94
2023-05-21T12:04:30.318Z,35.67
2023-05-21T12:07:00.029Z,35.54
2023-05-21T12:09:26.814Z,36.36
2023-05-21T12:11:53.535Z,36.71
2023-05-21T12:14:21.082Z,37.33
2023-05-21T12:16:47.889Z,37.01
2023-05-21T12:19:16.840Z,36.18
2023-05-21T12:21:43.541Z,36.23
2023-05-21T12:24:10.589Z,36.25
2023-05-21T12:26:38.462Z,35.86
2023-05-21T12:29:05.216Z,36.53
2023-05-21T12:31:32.373Z,36.51
2023-05-21T12:34:01.673Z,36.51
2023-05-21T12:36:34.398Z,36.99
2023-05-21T12:39:01.213Z,36.90
2023-05-21T12:41:29.072Z,36.18
2023-05-21T12:43:55.743Z,36.50
2023-05-21T12:46:22.890Z,36.69
2023-05-21T12:48:52.543Z,35.91
2023-05-21T12:51:19.671Z,34.71
2023-05-21T12:53:47.026Z,35.11
2023-05-21T12:56:15.678Z,35.00
2023-05-21T12:58:42.678Z,35.65
2023-05-21T13:01:10.205Z,35.86
2023-05-21T13:03:37.656Z,35.56
2023-05-21T13:06:08.436Z,35.13
2023-05-21T13:08:35.451Z,35.81
2023-05-21T13:11:02.718Z,35.86
2023-05-21T13:13:29.854Z,36.04
2023-05-21T13:15:56.776Z,35.72
2023-05-21T13:18:24.122Z,35.28
2023-05-21T13:20:51.244Z,35.81
2023-05-21T13:23:17.899Z,35.14
2023-05-21T13:25:44.521Z,35.27
2023-05-21T13:28:14.513Z,35.81
2023-05-21T13:30:41.448Z,35.38
2023-05-21T13:33:08.438Z,35.01
2023-05-21T13:35:35.666Z,35.05
2023-05-21T13:38:02.492Z,34.95
2023-05-21T13:40:29.145Z,34.42
2023-05-21T13:42:56.270Z,33.82
2023-05-21T13:45:28.382Z,34.05
2023-05-21T13:47:57.833Z,34.48
2023-05-21T13:50:24.785Z,34.58
2023-05-21T13:52:51.621Z,34.35
2023-05-21T13:55:18.667Z,34.83
2023-05-21T13:57:45.634Z,35.28
2023-05-21T14:00:14.772Z,35.13
2023-05-21T14:02:43.122Z,35.75
2023-05-21T14:05:10.966Z,35.74
2023-05-21T14:07:39.240Z,36.00
2023-05-21T14:10:06.396Z,34.87
2023-05-21T14:12:34.140Z,35.53
2023-05-21T14:15:00.820Z,35.47
2023-05-21T14:17:27.607Z,35.90
2023-05-21T14:19:55.184Z,35.62
2023-05-21T14:22:25.102Z,35.69
2023-05-21T14:24:52.253Z,35.55
2023-05-21T14:27:19.100Z,35.84
2023-05-21T14:29:45.842Z,35.28
2023-05-21T14:32:12.672Z,35.76
2023-05-21T14:34:40.036Z,37.02
2023-05-21T14:37:07.171Z,36.55
2023-05-21T14:39:34.016Z,36.57
2023-05-21T14:42:02.853Z,37.19
2023-05-21T14:44:29.648Z,36.88
2023-05-21T14:46:56.996Z,36.87
2023-05-21T14:49:23.760Z,36.56
2023-05-21T14:51:50.586Z,37.09
2023-05-21T14:54:17.319Z,36.36
2023-05-21T14:56:44.156Z,36.60
2023-05-21T14:59:12.333Z,36.72
2023-05-21T15:01:39.403Z,36.58
2023-05-21T15:04:07.344Z,36.48
2023-05-21T15:06:34.291Z,36.93
2023-05-21T15:09:01.146Z,36.40
2023-05-21T15:11:27.877Z,36.68
2023-05-21T15:13:54.612Z,36.53
2023-05-21T15:16:21.718Z,36.62
2023-05-21T15:18:49.682Z,37.05
2023-05-21T15:21:16.579Z,35.72
2023-05-21T15:23:43.315Z,35.44
2023-05-21T15:26:10.154Z,35.67
2023-05-21T15:28:36.997Z,35.59
2023-05-21T15:31:03.839Z,35.59
2023-05-21T15:33:30.683Z,35.70
2023-05-21T15:35:57.408Z,35.32
2023-05-21T15:38:24.138Z,35.24
2023-05-21T15:40:50.833Z,35.39
2023-05-21T15:43:17.446Z,35.14
2023-05-21T15:45:44.185Z,35.88
2023-05-21T15:48:12.133Z,35.95
2023-05-21T15:50:39.602Z,35.75
2023-05-21T15:53:06.460Z,35.45
2023-05-21T15:55:33.339Z,35.43
2023-05-21T15:58:02.198Z,35.66
2023-05-21T16:00:29.443Z,35.67
2023-05-21T16:02:56.629Z,36.16
2023-05-21T16:05:23.740Z,36.26
2023-05-21T16:07:50.990Z,35.89
2023-05-21T16:10:18.040Z,35.89
2023-05-21T16:12:44.872Z,35.71
2023-05-21T16:15:11.847Z,35.78
2023-05-21T16:17:38.506Z,36.10
2023-05-21T16:20:06.028Z,36.08
2023-05-21T16:22:32.752Z,36.04
2023-05-21T16:24:59.491Z,36.56
2023-05-21T16:27:26.236Z,36.50
2023-05-21T16:29:53.074Z,36.12
2023-05-21T16:32:19.831Z,36.37
2023-05-21T16:34:46.861Z,36.17
2023-05-21T16:37:13.601Z,36.09
2023-05-21T16:39:40.457Z,36.09
2023-05-21T16:42:08.630Z,36.24
2023-05-21T16:44:37.406Z,36.58
2023-05-21T16:47:04.672Z,36.40
2023-05-21T16:49:31.500Z,36.41
2023-05-21T16:51:58.244Z,36.31
2023-05-21T16:54:26.410Z,36.07
2023-05-21T16:56:54.500Z,36.42
2023-05-21T16:59:21.331Z,36.52
2023-05-21T17:01:48.427Z,36.63
2023-05-21T17:04:15.324Z,36.96
2023-05-21T17:06:42.057Z,36.97
2023-05-21T17:09:08.803Z,36.99
2023-05-21T17:11:35.668Z,37.14
2023-05-21T17:14:02.502Z,37.47
2023-05-21T17:16:29.410Z,37.45
2023-05-21T17:18:56.525Z,37.62
2023-05-21T17:21:23.423Z,37.82
2023-05-21T17:23:50.166Z,38.12
2023-05-21T17:26:16.901Z,38.44
2023-05-21T17:28:43.858Z,38.03
2023-05-21T17:31:10.766Z,38.22
2023-05-21T17:33:38.956Z,38.40
2023-05-21T17:36:05.734Z,38.60
2023-05-21T17:38:32.608Z,38.55
2023-05-21T17:40:59.404Z,38.61
2023-05-21T17:43:27.255Z,38.93
2023-05-21T17:45:54.141Z,39.56
2023-05-21T17:48:21.013Z,39.42
2023-05-21T17:50:48.000Z,39.43
2023-05-21T17:53:14.844Z,39.71
2023-05-21T17:55:41.688Z,39.74
2023-05-21T17:58:09.634Z,39.86
2023-05-21T18:00:36.655Z,39.73
2023-05-21T18:03:03.545Z,39.82
2023-05-21T18:05:30.884Z,39.97
2023-05-21T18:07:58.648Z,39.79
2023-05-21T18:10:25.486Z,40.20
2023-05-21T18:12:52.359Z,40.27
2023-05-21T18:15:19.065Z,40.00
2023-05-21T18:17:46.982Z,40.35
2023-05-21T18:20:14.184Z,40.45
2023-05-21T18:22:40.859Z,40.09
2023-05-21T18:25:08.400Z,40.52
2023-05-21T18:27:35.445Z,40.25
2023-05-21T18:30:04.962Z,40.15
2023-05-21T18:32:33.091Z,40.29
2023-05-21T18:34:59.947Z,40.02
2023-05-21T18:37:26.898Z,40.22
2023-05-21T18:39:53.736Z,40.44
2023-05-21T18:42:20.371Z,40.27
2023-05-21T18:44:50.185Z,40.73
2023-05-21T18:47:17.033Z,40.83
2023-05-21T18:49:43.976Z,41.12
2023-05-21T18:52:10.821Z,40.92
2023-05-21T18:54:37.675Z,41.60
2023-05-21T18:57:04.608Z,41.76
2023-05-21T18:59:31.348Z,41.88
2023-05-21T19:01:58.151Z,43.04
2023-05-21T19:04:25.051Z,43.70
2023-05-21T19:06:51.885Z,44.29
2023-05-21T19:09:18.615Z,43.44
2023-05-21T19:11:45.460Z,43.13
2023-05-21T19:14:12.292Z,43.31
2023-05-21T19:16:39.205Z,42.68
2023-05-21T19:19:07.254Z,44.15
2023-05-21T19:21:34.357Z,43.86
2023-05-21T19:24:01.619Z,44.07
2023-05-21T19:26:29.889Z,44.64
2023-05-21T19:28:56.728Z,44.61
2023-05-21T19:31:24.700Z,44.99
2023-05-21T19:33:51.840Z,43.91
2023-05-21T19:36:18.790Z,44.18
2023-05-21T19:38:47.679Z,44.44
2023-05-21T19:41:15.138Z,44.98
2023-05-21T19:43:41.877Z,44.11
2023-05-21T19:46:09.281Z,44.39
2023-05-21T19:48:36.384Z,43.47
2023-05-21T19:51:04.268Z,46.44
2023-05-21T19:53:30.999Z,45.36
2023-05-21T19:55:58.035Z,45.61
2023-05-21T19:58:26.513Z,47.02
2023-05-21T20:00:57.944Z,47.23
2023-05-21T20:03:26.806Z,46.39
2023-05-21T20:05:56.708Z,46.10
2023-05-21T20:08:23.618Z,45.56
2023-05-21T20:10:52.043Z,45.82
2023-05-21T20:13:21.086Z,45.92
2023-05-21T20:15:49.516Z,45.60
2023-05-21T20:18:16.570Z,45.74
2023-05-21T20:20:43.561Z,45.32
2023-05-21T20:23:10.524Z,45.26
2023-05-21T20:25:37.473Z,45.11
2023-05-21T20:28:05.245Z,44.57
2023-05-21T20:30:33.070Z,44.80
2023-05-21T20:33:03.081Z,44.71
2023-05-21T20:35:30.269Z,45.00
2023-05-21T20:37:57.079Z,44.68
2023-05-21T20:40:24.040Z,45.27
2023-05-21T20:42:53.809Z,44.69
2023-05-21T20:45:29.178Z,44.77
2023-05-21T20:47:56.565Z,44.66
2023-05-21T20:50:25.627Z,44.86
2023-05-21T20:52:52.574Z,44.43
2023-05-21T20:55:20.435Z,44.00
2023-05-21T20:57:47.282Z,43.95
2023-05-21T21:00:15.503Z,44.00
2023-05-21T21:02:42.496Z,43.96
2023-05-21T21:05:09.865Z,43.94
2023-05-21T21:07:37.208Z,44.07
2023-05-21T21:10:04.360Z,44.15
2023-05-21T21:12:31.118Z,44.67
2023-05-21T21:14:57.840Z,44.92
2023-05-21T21:17:24.674Z,44.84
2023-05-21T21:19:51.625Z,45.00
2023-05-21T21:22:18.653Z,44.76
2023-05-21T21:24:45.899Z,45.01
2023-05-21T21:27:12.784Z,45.10
2023-05-21T21:29:39.506Z,45.25
2023-05-21T21:32:06.571Z,45.08
2023-05-21T21:34:33.292Z,45.18
2023-05-21T21:37:00.067Z,44.81
2023-05-21T21:39:26.988Z,44.85
2023-05-21T21:41:53.754Z,45.07
2023-05-21T21:44:20.709Z,46.13
2023-05-21T21:46:47.722Z,46.27
2023-05-21T21:49:16.812Z,45.85
2023-05-21T21:51:48.104Z,45.89
2023-05-21T21:54:15.101Z,47.57
2023-05-21T21:56:42.042Z,50.20
2023-05-21T21:59:08.886Z,50.13
2023-05-21T22:01:36.500Z,52.61
2023-05-21T22:04:03.500Z,53.29
2023-05-21T22:06:30.951Z,53.65
2023-05-21T22:08:57.743Z,54.68
2023-05-21T22:11:25.763Z,57.53
2023-05-21T22:13:53.525Z,52.49
2023-05-21T22:16:20.406Z,50.53
2023-05-21T22:18:49.713Z,53.55
2023-05-21T22:21:18.044Z,55.85
2023-05-21T22:23:45.130Z,55.05
2023-05-21T22:26:11.961Z,55.91
2023-05-21T22:28:38.783Z,59.34
2023-05-21T22:31:05.668Z,59.26
2023-05-21T22:33:32.583Z,58.60
2023-05-21T22:35:59.413Z,54.03
2023-05-21T22:38:26.111Z,51.94
2023-05-21T22:40:53.011Z,53.61
2023-05-21T22:43:19.941Z,55.72
2023-05-21T22:45:46.885Z,56.00
2023-05-21T22:48:13.929Z,58.11
2023-05-21T22:50:41.132Z,53.84
2023-05-21T22:53:09.664Z,54.22
2023-05-21T22:55:36.403Z,56.18
2023-05-21T22:58:03.263Z,56.45
2023-05-21T23:00:30.097Z,58.04
2023-05-21T23:02:56.967Z,56.91
2023-05-21T23:05:23.874Z,58.22
2023-05-21T23:07:50.923Z,55.24
2023-05-21T23:10:17.841Z,54.49
2023-05-21T23:12:44.623Z,56.61
2023-05-21T23:15:11.551Z,56.92
2023-05-21T23:17:38.768Z,60.69
2023-05-21T23:20:06.772Z,59.10
2023-05-21T23:22:33.712Z,65.30
2023-05-21T23:25:00.876Z,63.46
2023-05-21T23:27:27.714Z,59.18
2023-05-21T23:29:54.563Z,60.62
2023-05-21T23:32:22.875Z,56.63
2023-05-21T23:34:49.666Z,61.52
2023-05-21T23:37:16.401Z,56.92
2023-05-21T23:39:45.090Z,62.88
2023-05-21T23:42:12.032Z,66.47
2023-05-21T23:44:38.783Z,61.93
2023-05-21T23:47:06.148Z,65.59
2023-05-21T23:49:32.971Z,59.67
2023-05-21T23:52:01.356Z,58.73
2023-05-21T23:54:28.019Z,64.78
2023-05-21T23:56:54.829Z,58.86
2023-05-21T23:59:21.581Z,66.88
